createdAt,value
2019-05-02T00:01:54.519Z,20.33
2019-05-02T00:04:45.737Z,20.87
2019-05-02T00:07:37.293Z,22.03
2019-05-02T00:10:28.126Z,17.87
2019-05-02T00:13:19.452Z,19.50
2019-05-02T00:16:14.007Z,21.33
2019-05-02T00:19:03.132Z,21.57
2019-05-02T00:21:53.617Z,20.00
2019-05-02T00:24:44.310Z,20.40
2019-05-02T00:27:37.667Z,23.00
2019-05-02T00:30:29.981Z,20.23
2019-05-02T00:33:18.733Z,20.03
2019-05-02T00:36:09.500Z,18.53
2019-05-02T00:38:59.938Z,18.17
2019-05-02T00:41:50.693Z,18.50
2019-05-02T00:44:42.097Z,19.10
2019-05-02T00:47:47.015Z,19.87
2019-05-02T00:50:40.437Z,19.80
2019-05-02T00:53:29.749Z,18.70
2019-05-02T00:56:20.074Z,20.17
2019-05-02T00:59:11.398Z,19.83
2019-05-02T01:02:12.473Z,21.60
2019-05-02T01:05:03.242Z,19.77
2019-05-02T01:08:00.764Z,18.13
2019-05-02T01:10:52.064Z,19.40
2019-05-02T01:13:40.573Z,18.30
2019-05-02T01:16:31.177Z,18.30
2019-05-02T01:19:22.205Z,16.97
2019-05-02T01:22:15.847Z,17.10
2019-05-02T01:25:05.555Z,17.53
2019-05-02T01:28:19.736Z,17.90
2019-05-02T01:31:25.832Z,20.17
2019-05-02T01:34:24.001Z,19.87
2019-05-02T01:37:21.918Z,17.00
2019-05-02T01:40:17.746Z,18.33
2019-05-02T01:43:24.077Z,16.43
2019-05-02T01:46:17.038Z,18.27
2019-05-02T01:49:08.549Z,18.80
2019-05-02T01:51:59.828Z,20.00
2019-05-02T01:54:51.356Z,18.77
2019-05-02T01:57:44.699Z,18.40
2019-05-02T02:00:35.166Z,21.17
2019-05-02T02:03:26.490Z,20.67
2019-05-02T02:06:17.675Z,17.77
2019-05-02T02:09:09.874Z,20.10
2019-05-02T02:12:04.909Z,19.13
2019-05-02T02:14:55.461Z,17.10
2019-05-02T02:17:46.844Z,24.03
2019-05-02T02:20:49.056Z,21.23
2019-05-02T02:23:59.249Z,29.57
2019-05-02T02:26:50.639Z,21.57
2019-05-02T02:29:43.976Z,20.70
2019-05-02T02:32:32.918Z,21.40
2019-05-02T02:35:24.138Z,20.90
2019-05-02T02:38:14.589Z,20.27
2019-05-02T02:41:12.528Z,21.17
2019-05-02T02:44:11.112Z,21.83
2019-05-02T02:47:04.659Z,22.20
2019-05-02T02:50:02.764Z,22.00
2019-05-02T02:52:47.277Z,21.20
2019-05-02T02:55:38.059Z,25.20
2019-05-02T02:58:29.431Z,22.97
2019-05-02T03:01:29.081Z,24.77
2019-05-02T03:04:13.123Z,22.30
2019-05-02T03:07:03.978Z,22.10
2019-05-02T03:09:59.405Z,23.50
2019-05-02T03:13:05.391Z,22.10
2019-05-02T03:16:00.347Z,22.50
2019-05-02T03:18:50.300Z,21.70
2019-05-02T03:21:54.248Z,21.73
2019-05-02T03:24:46.774Z,24.80
2019-05-02T03:27:40.442Z,24.03
2019-05-02T03:30:36.347Z,27.50
2019-05-02T03:33:22.440Z,22.30
2019-05-02T03:36:28.004Z,23.37
2019-05-02T03:39:13.323Z,26.63
2019-05-02T03:42:02.965Z,23.87
2019-05-02T03:44:56.210Z,23.60
2019-05-02T03:47:44.159Z,21.20
2019-05-02T03:50:35.338Z,25.30
2019-05-02T03:53:27.758Z,26.90
2019-05-02T03:56:19.328Z,26.77
2019-05-02T03:59:10.743Z,23.10
2019-05-02T04:02:02.260Z,23.53
2019-05-02T04:05:00.338Z,24.77
2019-05-02T04:07:48.038Z,25.23
2019-05-02T04:11:23.780Z,23.57
2019-05-02T04:14:15.913Z,22.00
2019-05-02T04:17:06.877Z,24.67
2019-05-02T04:19:58.401Z,28.33
2019-05-02T04:22:50.872Z,28.77
2019-05-02T04:25:42.143Z,27.63
2019-05-02T04:28:34.693Z,26.50
2019-05-02T04:31:31.566Z,24.47
2019-05-02T04:34:18.158Z,27.47
2019-05-02T04:37:08.573Z,28.20
2019-05-02T04:40:03.186Z,23.50
2019-05-02T04:43:02.074Z,25.40
2019-05-02T04:45:53.117Z,23.77
2019-05-02T04:48:44.305Z,29.83
2019-05-02T04:51:31.764Z,26.30
2019-05-02T04:54:25.667Z,28.40
2019-05-02T04:57:12.268Z,29.40
2019-05-02T05:00:10.477Z,29.57
2019-05-02T05:02:54.721Z,27.87
2019-05-02T05:05:48.210Z,30.67
2019-05-02T05:08:41.235Z,26.37
2019-05-02T05:11:30.042Z,30.70
2019-05-02T05:14:21.071Z,29.50
2019-05-02T05:17:12.124Z,31.80
2019-05-02T05:20:10.500Z,34.80
2019-05-02T05:22:58.011Z,28.60
2019-05-02T05:25:55.842Z,31.63
2019-05-02T05:28:47.543Z,30.23
2019-05-02T05:31:38.808Z,30.50
2019-05-02T05:34:32.631Z,35.60
2019-05-02T05:37:22.371Z,31.10
2019-05-02T05:40:12.665Z,35.00
2019-05-02T05:43:14.138Z,27.17
2019-05-02T05:46:06.040Z,31.50
2019-05-02T05:48:47.785Z,29.20
2019-05-02T05:51:39.305Z,30.70
2019-05-02T05:54:33.057Z,36.13
2019-05-02T05:57:22.243Z,37.47
2019-05-02T06:00:18.733Z,34.20
2019-05-02T06:03:11.524Z,32.40
2019-05-02T06:05:57.986Z,30.87
2019-05-02T06:08:53.959Z,35.23
2019-05-02T06:11:41.437Z,28.83
2019-05-02T06:14:34.483Z,32.43
2019-05-02T06:17:28.537Z,33.57
2019-05-02T06:20:17.367Z,31.57
2019-05-02T06:23:08.385Z,29.77
2019-05-02T06:25:59.743Z,31.67
2019-05-02T06:28:50.981Z,32.07
2019-05-02T06:31:44.338Z,35.70
2019-05-02T06:34:38.786Z,36.03
2019-05-02T06:37:27.507Z,31.80
2019-05-02T06:40:17.925Z,31.80
2019-05-02T06:43:11.254Z,35.97
2019-05-02T06:46:14.878Z,31.10
2019-05-02T06:48:54.215Z,35.37
2019-05-02T06:51:44.716Z,32.40
2019-05-02T06:54:35.570Z,32.43
2019-05-02T06:57:26.361Z,28.30
2019-05-02T07:00:18.085Z,29.30
2019-05-02T07:03:10.135Z,25.60
2019-05-02T07:06:02.895Z,31.20
2019-05-02T07:08:52.845Z,29.33
2019-05-02T07:11:56.623Z,30.27
2019-05-02T07:14:35.962Z,26.80
2019-05-02T07:17:39.766Z,32.80
2019-05-02T07:20:30.380Z,30.37
2019-05-02T07:23:20.737Z,27.30
2019-05-02T07:26:15.528Z,29.73
2019-05-02T07:29:03.684Z,27.10
2019-05-02T07:31:54.589Z,26.40
2019-05-02T07:34:48.133Z,26.30
2019-05-02T07:37:37.953Z,39.20
2019-05-02T07:40:29.056Z,30.03
2019-05-02T07:43:22.214Z,34.70
2019-05-02T07:46:16.141Z,42.40
2019-05-02T07:49:04.234Z,36.17
2019-05-02T07:51:57.647Z,35.90
2019-05-02T07:54:46.862Z,29.97
2019-05-02T07:57:37.246Z,32.50
2019-05-02T08:00:32.112Z,28.47
2019-05-02T08:03:20.856Z,26.23
2019-05-02T08:06:12.367Z,30.40
2019-05-02T08:09:07.174Z,26.00
2019-05-02T08:11:57.687Z,25.77
2019-05-02T08:14:47.920Z,28.00
2019-05-02T08:17:38.844Z,23.53
2019-05-02T08:20:29.270Z,21.80
2019-05-02T08:23:20.634Z,22.40
2019-05-02T08:26:16.340Z,24.40
2019-05-02T08:29:06.052Z,21.83
2019-05-02T08:31:56.839Z,22.80
2019-05-02T08:34:51.897Z,22.20
2019-05-02T08:37:41.045Z,21.90
2019-05-02T08:40:31.627Z,22.10
2019-05-02T08:43:22.856Z,24.57
2019-05-02T08:46:15.844Z,24.93
2019-05-02T08:49:06.492Z,22.13
2019-05-02T08:51:58.288Z,21.37
2019-05-02T08:54:49.275Z,23.80
2019-05-02T08:57:40.098Z,21.80
2019-05-02T09:00:36.883Z,22.20
2019-05-02T09:03:23.935Z,23.80
2019-05-02T09:06:17.287Z,21.63
2019-05-02T09:09:08.853Z,22.40
2019-05-02T09:12:11.423Z,24.30
2019-05-02T09:14:52.245Z,26.57
2019-05-02T09:17:51.523Z,24.10
2019-05-02T09:20:35.336Z,25.03
2019-05-02T09:23:31.942Z,24.33
2019-05-02T09:26:31.964Z,21.80
2019-05-02T09:29:12.482Z,24.97
2019-05-02T09:32:02.312Z,24.97
2019-05-02T09:34:56.640Z,21.70
2019-05-02T09:37:45.531Z,21.00
2019-05-02T09:40:35.744Z,20.83
2019-05-02T09:43:29.408Z,20.37
2019-05-02T09:46:21.752Z,20.97
2019-05-02T09:49:16.471Z,22.45
2019-05-02T09:52:06.387Z,21.15
2019-05-02T09:54:57.661Z,19.15
2019-05-02T09:57:49.076Z,18.25
2019-05-02T10:01:01.824Z,21.55
2019-05-02T10:03:52.208Z,19.65
2019-05-02T10:06:44.229Z,19.45
2019-05-02T10:09:36.241Z,22.77
2019-05-02T10:12:27.563Z,18.82
2019-05-02T10:15:22.104Z,20.40
2019-05-02T10:18:14.528Z,20.62
2019-05-02T10:21:07.721Z,18.30
2019-05-02T10:24:00.848Z,18.75
2019-05-02T10:26:55.263Z,19.05
2019-05-02T10:29:45.831Z,19.62
2019-05-02T10:32:37.617Z,21.70
2019-05-02T10:35:37.311Z,17.73
2019-05-02T10:38:22.958Z,17.77
2019-05-02T10:41:13.761Z,18.27
2019-05-02T10:44:04.854Z,17.48
2019-05-02T10:46:58.442Z,17.15
2019-05-02T10:49:54.405Z,20.67
2019-05-02T10:52:45.769Z,15.97
2019-05-02T10:55:36.818Z,18.17
2019-05-02T10:58:33.930Z,18.10
2019-05-02T11:01:21.998Z,17.67
2019-05-02T11:04:13.882Z,17.87
2019-05-02T11:07:04.212Z,20.80
2019-05-02T11:09:57.374Z,18.30
2019-05-02T11:13:05.477Z,21.53
2019-05-02T11:16:13.907Z,23.00
2019-05-02T11:19:13.324Z,19.77
2019-05-02T11:22:04.543Z,26.20
2019-05-02T11:24:55.683Z,24.90
2019-05-02T11:27:46.039Z,22.43
2019-05-02T11:30:41.863Z,22.53
2019-05-02T11:33:32.557Z,22.83
2019-05-02T11:36:23.055Z,22.07
2019-05-02T11:39:24.806Z,24.00
2019-05-02T11:42:07.050Z,21.90
2019-05-02T11:44:58.281Z,24.30
2019-05-02T11:47:48.937Z,21.00
2019-05-02T11:50:40.028Z,21.57
2019-05-02T11:53:32.652Z,19.40
2019-05-02T11:56:23.593Z,21.37
2019-05-02T11:59:14.961Z,19.17
2019-05-02T12:02:27.802Z,20.40
2019-05-02T12:05:22.079Z,18.17
2019-05-02T12:08:12.316Z,20.50
2019-05-02T12:11:03.889Z,26.60
2019-05-02T12:13:56.938Z,23.03
2019-05-02T12:16:46.744Z,21.30
2019-05-02T12:19:38.116Z,20.80
2019-05-02T12:22:29.086Z,19.90
2019-05-02T12:25:22.364Z,24.03
2019-05-02T12:28:13.751Z,18.90
2019-05-02T12:31:08.015Z,22.17
2019-05-02T12:33:57.541Z,20.57
2019-05-02T12:36:48.546Z,24.20
2019-05-02T12:39:44.247Z,20.13
2019-05-02T12:42:36.514Z,21.00
2019-05-02T12:45:28.759Z,20.30
2019-05-02T12:48:21.782Z,22.17
2019-05-02T12:51:13.096Z,21.27
2019-05-02T12:54:04.546Z,23.90
2019-05-02T12:56:55.842Z,23.40
2019-05-02T12:59:46.062Z,22.47
2019-05-02T13:02:42.650Z,20.00
2019-05-02T13:05:34.037Z,20.10
2019-05-02T13:08:25.336Z,19.13
2019-05-02T13:11:27.219Z,22.27
2019-05-02T13:14:22.377Z,20.77
2019-05-02T13:17:13.338Z,21.90
2019-05-02T13:20:06.378Z,17.40
2019-05-02T13:23:37.149Z,19.37
2019-05-02T13:26:27.212Z,24.73
2019-05-02T13:29:18.175Z,21.60
2019-05-02T13:32:27.402Z,20.90
2019-05-02T13:35:36.545Z,18.20
2019-05-02T13:38:27.880Z,18.03
2019-05-02T13:41:19.370Z,17.23
2019-05-02T13:44:12.822Z,15.83
2019-05-02T13:47:05.996Z,18.77
2019-05-02T13:50:00.922Z,15.70
2019-05-02T13:52:53.266Z,19.70
2019-05-02T13:55:48.523Z,19.57
2019-05-02T13:58:38.980Z,24.90
2019-05-02T14:01:31.668Z,17.00
2019-05-02T14:04:23.666Z,19.20
2019-05-02T14:07:17.477Z,15.27
2019-05-02T14:10:18.448Z,17.03
2019-05-02T14:13:09.459Z,24.17
2019-05-02T14:16:02.259Z,21.73
2019-05-02T14:18:53.458Z,20.40
2019-05-02T14:21:44.466Z,21.00
2019-05-02T14:24:42.222Z,20.30
2019-05-02T14:27:33.497Z,18.37
2019-05-02T14:30:37.074Z,16.97
2019-05-02T14:33:23.271Z,19.80
2019-05-02T14:36:15.239Z,16.47
2019-05-02T14:39:08.395Z,17.80
2019-05-02T14:41:59.104Z,20.83
2019-05-02T14:45:05.606Z,19.87
2019-05-02T14:47:43.603Z,17.80
2019-05-02T14:50:36.525Z,20.50
2019-05-02T14:53:27.321Z,17.87
2019-05-02T14:56:29.629Z,16.50
2019-05-02T14:59:20.273Z,20.83
2019-05-02T15:02:32.798Z,16.37
2019-05-02T15:05:27.889Z,19.13
2019-05-02T15:08:15.498Z,15.40
2019-05-02T15:11:06.452Z,20.97
2019-05-02T15:13:57.471Z,24.60
2019-05-02T15:16:49.714Z,25.70
2019-05-02T15:19:42.643Z,17.90
2019-05-02T15:22:37.439Z,17.17
2019-05-02T15:25:25.298Z,13.50
2019-05-02T15:28:19.393Z,12.87
2019-05-02T15:31:18.987Z,13.00
2019-05-02T15:34:25.733Z,15.93
2019-05-02T15:37:16.986Z,12.20
2019-05-02T15:43:09.003Z,12.60
2019-05-02T15:45:54.773Z,12.03
2019-05-02T15:48:48.702Z,12.27
2019-05-02T15:51:43.714Z,11.60
2019-05-02T15:54:32.311Z,11.70
2019-05-02T15:57:24.873Z,11.30
2019-05-02T16:00:25.691Z,11.37
2019-05-02T16:03:14.844Z,13.60
2019-05-02T16:06:06.414Z,14.73
2019-05-02T16:08:58.092Z,12.30
2019-05-02T16:11:53.151Z,12.27
2019-05-02T16:14:42.447Z,11.50
2019-05-02T16:17:33.888Z,12.23
2019-05-02T16:20:33.410Z,13.10
2019-05-02T16:23:29.653Z,14.03
2019-05-02T16:26:15.391Z,13.80
2019-05-02T16:29:06.440Z,20.10
2019-05-02T16:32:19.414Z,14.77
2019-05-02T16:35:15.583Z,14.33
2019-05-02T16:38:02.250Z,13.50
2019-05-02T16:40:53.207Z,13.80
2019-05-02T16:43:43.529Z,15.10
2019-05-02T16:46:34.755Z,13.40
2019-05-02T16:49:26.116Z,13.33
2019-05-02T16:52:17.209Z,13.33
2019-05-02T16:55:08.418Z,15.60
2019-05-02T16:58:02.704Z,16.10
2019-05-02T17:00:53.101Z,15.50
2019-05-02T17:03:43.630Z,19.23
2019-05-02T17:06:36.724Z,16.63
2019-05-02T17:09:38.825Z,16.50
2019-05-02T17:12:29.630Z,14.50
2019-05-02T17:15:36.837Z,13.13
2019-05-02T17:18:27.326Z,12.73
2019-05-02T17:21:17.638Z,14.73
2019-05-02T17:24:08.934Z,15.40
2019-05-02T17:27:00.032Z,13.90
2019-05-02T17:29:52.453Z,12.87
2019-05-02T17:32:42.853Z,15.17
2019-05-02T17:35:34.009Z,14.63
2019-05-02T17:38:29.092Z,12.60
2019-05-02T17:41:16.422Z,12.40
2019-05-02T17:44:07.579Z,12.70
2019-05-02T17:47:01.526Z,12.73
2019-05-02T17:49:50.565Z,12.83
2019-05-02T17:52:46.493Z,13.50
2019-05-02T17:55:40.290Z,12.83
2019-05-02T17:58:31.612Z,13.70
2019-05-02T18:01:33.336Z,14.57
2019-05-02T18:04:22.123Z,15.93
2019-05-02T18:07:13.738Z,13.63
2019-05-02T18:10:13.612Z,14.10
2019-05-02T18:12:59.859Z,15.17
2019-05-02T18:15:50.017Z,12.90
2019-05-02T18:18:45.437Z,12.77
2019-05-02T18:21:33.742Z,13.37
2019-05-02T18:24:24.363Z,13.10
2019-05-02T18:27:15.617Z,13.90
2019-05-02T18:30:08.495Z,14.23
2019-05-02T18:33:03.499Z,13.37
2019-05-02T18:35:52.670Z,12.60
2019-05-02T18:38:43.411Z,12.50
2019-05-02T18:41:37.427Z,14.00
2019-05-02T18:44:27.271Z,12.30
2019-05-02T18:47:20.243Z,12.93
2019-05-02T18:50:37.025Z,12.67
2019-05-02T18:53:27.425Z,12.00
2019-05-02T18:56:18.273Z,12.40
2019-05-02T18:59:14.304Z,13.23
2019-05-02T19:02:02.717Z,12.17
2019-05-02T19:04:53.926Z,12.40
2019-05-02T19:07:47.292Z,12.17
2019-05-02T19:10:42.514Z,14.80
2019-05-02T19:13:32.678Z,12.23
2019-05-02T19:16:25.080Z,12.93
2019-05-02T19:19:14.126Z,13.07
2019-05-02T19:22:07.443Z,12.53
2019-05-02T19:24:57.930Z,13.20
2019-05-02T19:28:05.925Z,12.63
2019-05-02T19:30:57.325Z,12.73
2019-05-02T19:33:48.489Z,12.77
2019-05-02T19:36:41.620Z,13.60
2019-05-02T19:39:33.729Z,12.63
2019-05-02T19:42:26.267Z,13.63
2019-05-02T19:45:18.877Z,14.07
2019-05-02T19:48:12.379Z,15.70
2019-05-02T19:51:03.299Z,13.40
2019-05-02T19:53:59.314Z,13.73
2019-05-02T19:56:48.582Z,13.30
2019-05-02T19:59:40.700Z,12.67
2019-05-02T20:02:37.542Z,13.23
2019-05-02T20:05:25.733Z,12.97
2019-05-02T20:08:21.433Z,13.57
2019-05-02T20:11:09.800Z,14.50
2019-05-02T20:14:04.212Z,12.30
2019-05-02T20:16:55.080Z,13.10
2019-05-02T20:19:48.763Z,13.83
2019-05-02T20:22:41.056Z,13.93
2019-05-02T20:25:37.882Z,13.00
2019-05-02T20:28:23.320Z,13.30
2019-05-02T20:31:13.820Z,14.80
2019-05-02T20:34:05.311Z,13.63
2019-05-02T20:36:56.554Z,18.10
2019-05-02T20:39:48.148Z,13.87
2019-05-02T20:42:41.892Z,13.87
2019-05-02T20:45:32.455Z,13.40
2019-05-02T20:48:23.734Z,13.60
2019-05-02T20:51:15.057Z,14.70
2019-05-02T20:54:05.894Z,14.03
2019-05-02T20:56:57.533Z,13.40
2019-05-02T20:59:49.009Z,15.50
2019-05-02T21:02:39.858Z,13.80
2019-05-02T21:05:38.026Z,14.37
2019-05-02T21:08:36.160Z,15.77
2019-05-02T21:11:28.846Z,14.90
2019-05-02T21:14:19.236Z,14.17
2019-05-02T21:17:10.486Z,14.33
2019-05-02T21:20:02.049Z,13.83
2019-05-02T21:22:53.134Z,14.03
2019-05-02T21:25:44.399Z,14.57
2019-05-02T21:28:34.605Z,14.03
2019-05-02T21:31:25.954Z,19.73
2019-05-02T21:34:17.222Z,13.40
2019-05-02T21:37:07.720Z,14.10
2019-05-02T21:39:58.821Z,14.10
2019-05-02T21:42:51.759Z,15.17
2019-05-02T21:45:42.895Z,14.53
2019-05-02T21:48:34.344Z,14.07
2019-05-02T21:51:42.639Z,14.53
2019-05-02T21:54:44.114Z,12.80
2019-05-02T21:57:34.827Z,13.00
2019-05-02T22:00:45.968Z,14.70
2019-05-02T22:03:36.927Z,16.13
2019-05-02T22:06:28.366Z,15.87
2019-05-02T22:09:19.866Z,15.33
2019-05-02T22:12:11.999Z,14.80
2019-05-02T22:15:02.487Z,14.30
2019-05-02T22:17:53.725Z,14.80
2019-05-02T22:20:44.620Z,14.53
2019-05-02T22:23:35.966Z,15.63
2019-05-02T22:26:27.430Z,13.43
2019-05-02T22:29:17.879Z,13.43
2019-05-02T22:32:08.343Z,14.67
2019-05-02T22:34:58.923Z,15.40
2019-05-02T22:37:52.007Z,16.73
2019-05-02T22:40:44.385Z,17.43
2019-05-02T22:43:35.623Z,19.27
2019-05-02T22:46:44.752Z,20.50
2019-05-02T22:49:36.081Z,17.23
2019-05-02T22:52:27.072Z,21.10
2019-05-02T22:55:18.188Z,19.17
2019-05-02T22:58:10.465Z,18.93
2019-05-02T23:01:01.957Z,17.50
2019-05-02T23:03:53.306Z,19.20
2019-05-02T23:06:44.622Z,19.67
2019-05-02T23:09:36.752Z,17.00
2019-05-02T23:12:27.369Z,19.50
2019-05-02T23:15:17.869Z,18.00
2019-05-02T23:18:08.234Z,18.70
2019-05-02T23:20:59.404Z,16.17
2019-05-02T23:23:52.273Z,17.83
2019-05-02T23:26:59.186Z,18.60
2019-05-02T23:29:51.920Z,22.87
2019-05-02T23:32:42.419Z,19.23
2019-05-02T23:35:34.311Z,17.33
2019-05-02T23:38:24.854Z,20.97
2019-05-02T23:41:15.053Z,19.07
2019-05-02T23:44:06.221Z,19.13
2019-05-02T23:46:56.540Z,18.73
2019-05-02T23:49:47.928Z,18.70
2019-05-02T23:52:40.048Z,19.80
2019-05-02T23:55:32.223Z,19.87
2019-05-02T23:58:23.531Z,18.87
